sensor_id;sensor_type;location;lat;lon;timestamp;pressure;altitude;pressure_sealevel;temperature
45701;BMP280;36277;32.852;-116.998;2022-07-18T00:01:05;99648.13;;;24.74
45701;BMP280;36277;32.852;-116.998;2022-07-18T00:03:31;99649.13;;;24.54
45701;BMP280;36277;32.852;-116.998;2022-07-18T00:05:57;99654.63;;;24.54
45701;BMP280;36277;32.852;-116.998;2022-07-18T00:08:24;99656.34;;;24.55
45701;BMP280;36277;32.852;-116.998;2022-07-18T00:10:50;99653.00;;;24.79
45701;BMP280;36277;32.852;-116.998;2022-07-18T00:13:17;99641.56;;;25.08
45701;BMP280;36277;32.852;-116.998;2022-07-18T00:15:43;99639.91;;;25.32
45701;BMP280;36277;32.852;-116.998;2022-07-18T00:18:09;99632.44;;;25.52
45701;BMP280;36277;32.852;-116.998;2022-07-18T00:20:35;99624.53;;;25.69
45701;BMP280;36277;32.852;-116.998;2022-07-18T00:23:02;99615.44;;;25.36
45701;BMP280;36277;32.852;-116.998;2022-07-18T00:25:38;99618.34;;;25.99
45701;BMP280;36277;32.852;-116.998;2022-07-18T00:28:05;99629.69;;;25.20
45701;BMP280;36277;32.852;-116.998;2022-07-18T00:30:31;99630.09;;;24.91
45701;BMP280;36277;32.852;-116.998;2022-07-18T00:32:57;99629.63;;;24.75
45701;BMP280;36277;32.852;-116.998;2022-07-18T00:35:23;99626.00;;;24.61
45701;BMP280;36277;32.852;-116.998;2022-07-18T00:37:50;99626.00;;;24.61
45701;BMP280;36277;32.852;-116.998;2022-07-18T00:40:16;99625.19;;;24.87
45701;BMP280;36277;32.852;-116.998;2022-07-18T00:42:42;99630.94;;;25.11
45701;BMP280;36277;32.852;-116.998;2022-07-18T00:45:09;99619.06;;;25.36
45701;BMP280;36277;32.852;-116.998;2022-07-18T00:47:35;99614.38;;;25.56
45701;BMP280;36277;32.852;-116.998;2022-07-18T00:50:02;99605.66;;;25.59
45701;BMP280;36277;32.852;-116.998;2022-07-18T00:52:31;99605.25;;;25.36
45701;BMP280;36277;32.852;-116.998;2022-07-18T00:54:57;99602.47;;;24.98
45701;BMP280;36277;32.852;-116.998;2022-07-18T00:57:24;99610.97;;;24.90
45701;BMP280;36277;32.852;-116.998;2022-07-18T00:59:50;99606.50;;;24.63
45701;BMP280;36277;32.852;-116.998;2022-07-18T01:02:36;99609.25;;;24.63
45701;BMP280;36277;32.852;-116.998;2022-07-18T01:05:03;99616.00;;;24.54
45701;BMP280;36277;32.852;-116.998;2022-07-18T01:07:29;99610.88;;;24.44
45701;BMP280;36277;32.852;-116.998;2022-07-18T01:09:55;99616.88;;;24.74
45701;BMP280;36277;32.852;-116.998;2022-07-18T01:12:22;99616.50;;;25.03
45701;BMP280;36277;32.852;-116.998;2022-07-18T01:14:51;99616.13;;;25.25
45701;BMP280;36277;32.852;-116.998;2022-07-18T01:17:19;99613.75;;;25.48
45701;BMP280;36277;32.852;-116.998;2022-07-18T01:19:46;99606.06;;;25.63
45701;BMP280;36277;32.852;-116.998;2022-07-18T01:22:15;99608.88;;;25.30
45701;BMP280;36277;32.852;-116.998;2022-07-18T01:24:42;99603.31;;;25.11
45701;BMP280;36277;32.852;-116.998;2022-07-18T01:27:13;99603.97;;;24.74
45701;BMP280;36277;32.852;-116.998;2022-07-18T01:29:39;99610.22;;;24.36
45701;BMP280;36277;32.852;-116.998;2022-07-18T01:32:06;99610.94;;;24.04
45701;BMP280;36277;32.852;-116.998;2022-07-18T01:34:33;99609.88;;;24.05
45701;BMP280;36277;32.852;-116.998;2022-07-18T01:37:00;99608.09;;;24.38
45701;BMP280;36277;32.852;-116.998;2022-07-18T01:39:27;99602.47;;;24.72
45701;BMP280;36277;32.852;-116.998;2022-07-18T01:42:01;99598.03;;;25.10
45701;BMP280;36277;32.852;-116.998;2022-07-18T01:44:28;99603.16;;;25.32
45701;BMP280;36277;32.852;-116.998;2022-07-18T01:46:54;99609.25;;;25.53
45701;BMP280;36277;32.852;-116.998;2022-07-18T01:49:21;99615.63;;;25.73
45701;BMP280;36277;32.852;-116.998;2022-07-18T01:51:50;99624.53;;;25.88
45701;BMP280;36277;32.852;-116.998;2022-07-18T01:54:21;99621.06;;;26.06
45701;BMP280;36277;32.852;-116.998;2022-07-18T01:56:47;99615.28;;;26.14
45701;BMP280;36277;32.852;-116.998;2022-07-18T01:59:14;99616.00;;;25.96
45701;BMP280;36277;32.852;-116.998;2022-07-18T02:01:40;99610.94;;;25.80
45701;BMP280;36277;32.852;-116.998;2022-07-18T02:04:06;99604.63;;;25.34
45701;BMP280;36277;32.852;-116.998;2022-07-18T02:06:32;99607.84;;;25.19
45701;BMP280;36277;32.852;-116.998;2022-07-18T02:08:59;99621.38;;;24.88
45701;BMP280;36277;32.852;-116.998;2022-07-18T02:11:25;99621.38;;;24.94
45701;BMP280;36277;32.852;-116.998;2022-07-18T02:13:52;99620.75;;;24.92
45701;BMP280;36277;32.852;-116.998;2022-07-18T02:16:18;99626.69;;;25.02
45701;BMP280;36277;32.852;-116.998;2022-07-18T02:18:44;99634.34;;;25.00
45701;BMP280;36277;32.852;-116.998;2022-07-18T02:21:11;99635.19;;;25.01
45701;BMP280;36277;32.852;-116.998;2022-07-18T02:23:40;99630.56;;;25.33
45701;BMP280;36277;32.852;-116.998;2022-07-18T02:26:07;99626.91;;;25.59
45701;BMP280;36277;32.852;-116.998;2022-07-18T02:28:33;99634.31;;;25.84
45701;BMP280;36277;32.852;-116.998;2022-07-18T02:31:00;99633.22;;;25.98
45701;BMP280;36277;32.852;-116.998;2022-07-18T02:33:26;99644.09;;;25.80
45701;BMP280;36277;32.852;-116.998;2022-07-18T02:35:52;99636.69;;;25.61
45701;BMP280;36277;32.852;-116.998;2022-07-18T02:38:19;99645.22;;;25.40
45701;BMP280;36277;32.852;-116.998;2022-07-18T02:40:45;99649.47;;;25.17
45701;BMP280;36277;32.852;-116.998;2022-07-18T02:43:11;99653.03;;;25.11
45701;BMP280;36277;32.852;-116.998;2022-07-18T02:45:37;99654.50;;;25.01
45701;BMP280;36277;32.852;-116.998;2022-07-18T02:48:04;99654.13;;;25.29
45701;BMP280;36277;32.852;-116.998;2022-07-18T02:50:30;99644.78;;;25.50
45701;BMP280;36277;32.852;-116.998;2022-07-18T02:52:56;99640.28;;;25.68
45701;BMP280;36277;32.852;-116.998;2022-07-18T02:55:23;99657.31;;;25.85
45701;BMP280;36277;32.852;-116.998;2022-07-18T02:57:50;99655.16;;;25.74
45701;BMP280;36277;32.852;-116.998;2022-07-18T03:00:17;99661.34;;;25.30
45701;BMP280;36277;32.852;-116.998;2022-07-18T03:02:45;99651.38;;;25.17
45701;BMP280;36277;32.852;-116.998;2022-07-18T03:05:12;99663.84;;;25.00
45701;BMP280;36277;32.852;-116.998;2022-07-18T03:07:39;99657.22;;;24.75
45701;BMP280;36277;32.852;-116.998;2022-07-18T03:10:06;99669.19;;;24.95
45701;BMP280;36277;32.852;-116.998;2022-07-18T03:12:33;99660.50;;;25.17
45701;BMP280;36277;32.852;-116.998;2022-07-18T03:14:59;99668.81;;;25.36
45701;BMP280;36277;32.852;-116.998;2022-07-18T03:17:26;99662.00;;;25.52
45701;BMP280;36277;32.852;-116.998;2022-07-18T03:19:52;99664.75;;;25.71
45701;BMP280;36277;32.852;-116.998;2022-07-18T03:22:18;99665.78;;;25.83
45701;BMP280;36277;32.852;-116.998;2022-07-18T03:24:45;99669.38;;;25.77
45701;BMP280;36277;32.852;-116.998;2022-07-18T03:27:11;99676.84;;;25.57
45701;BMP280;36277;32.852;-116.998;2022-07-18T03:29:37;99671.13;;;25.14
45701;BMP280;36277;32.852;-116.998;2022-07-18T03:32:03;99678.06;;;24.71
45701;BMP280;36277;32.852;-116.998;2022-07-18T03:34:30;99671.56;;;24.44
45701;BMP280;36277;32.852;-116.998;2022-07-18T03:36:56;99675.53;;;24.95
45701;BMP280;36277;32.852;-116.998;2022-07-18T03:39:22;99677.53;;;25.21
45701;BMP280;36277;32.852;-116.998;2022-07-18T03:41:48;99680.47;;;25.45
45701;BMP280;36277;32.852;-116.998;2022-07-18T03:44:17;99693.03;;;25.60
45701;BMP280;36277;32.852;-116.998;2022-07-18T03:46:43;99686.44;;;25.81
45701;BMP280;36277;32.852;-116.998;2022-07-18T03:49:09;99695.56;;;25.94
45701;BMP280;36277;32.852;-116.998;2022-07-18T03:51:36;99704.69;;;26.08
45701;BMP280;36277;32.852;-116.998;2022-07-18T03:54:02;99707.50;;;25.82
45701;BMP280;36277;32.852;-116.998;2022-07-18T03:56:28;99704.09;;;25.54
45701;BMP280;36277;32.852;-116.998;2022-07-18T03:58:55;99708.88;;;24.94
45701;BMP280;36277;32.852;-116.998;2022-07-18T04:01:21;99704.28;;;24.54
45701;BMP280;36277;32.852;-116.998;2022-07-18T04:03:47;99698.75;;;24.47
45701;BMP280;36277;32.852;-116.998;2022-07-18T04:06:13;99700.19;;;24.97
45701;BMP280;36277;32.852;-116.998;2022-07-18T04:08:39;99702.53;;;25.13
45701;BMP280;36277;32.852;-116.998;2022-07-18T04:11:06;99704.50;;;25.31
45701;BMP280;36277;32.852;-116.998;2022-07-18T04:13:32;99707.69;;;25.41
45701;BMP280;36277;32.852;-116.998;2022-07-18T04:15:58;99694.75;;;25.48
45701;BMP280;36277;32.852;-116.998;2022-07-18T04:18:24;99698.53;;;25.60
45701;BMP280;36277;32.852;-116.998;2022-07-18T04:20:50;99718.97;;;25.72
45701;BMP280;36277;32.852;-116.998;2022-07-18T04:23:17;99728.50;;;25.76
45701;BMP280;36277;32.852;-116.998;2022-07-18T04:25:44;99711.31;;;25.55
45701;BMP280;36277;32.852;-116.998;2022-07-18T04:28:12;99718.31;;;25.19
45701;BMP280;36277;32.852;-116.998;2022-07-18T04:30:41;99721.66;;;24.48
45701;BMP280;36277;32.852;-116.998;2022-07-18T04:33:09;99714.63;;;24.05
45701;BMP280;36277;32.852;-116.998;2022-07-18T04:35:36;99709.81;;;24.54
45701;BMP280;36277;32.852;-116.998;2022-07-18T04:38:06;99712.06;;;24.91
45701;BMP280;36277;32.852;-116.998;2022-07-18T04:40:32;99721.22;;;25.04
45701;BMP280;36277;32.852;-116.998;2022-07-18T04:42:59;99725.13;;;25.23
45701;BMP280;36277;32.852;-116.998;2022-07-18T04:45:25;99715.56;;;25.44
45701;BMP280;36277;32.852;-116.998;2022-07-18T04:47:53;99718.75;;;25.48
45701;BMP280;36277;32.852;-116.998;2022-07-18T04:50:22;99724.91;;;25.30
45701;BMP280;36277;32.852;-116.998;2022-07-18T04:52:49;99714.66;;;25.05
45701;BMP280;36277;32.852;-116.998;2022-07-18T04:55:17;99720.88;;;24.60
45701;BMP280;36277;32.852;-116.998;2022-07-18T04:57:44;99726.53;;;24.06
45701;BMP280;36277;32.852;-116.998;2022-07-18T05:00:19;99730.09;;;24.40
45701;BMP280;36277;32.852;-116.998;2022-07-18T05:02:47;99718.75;;;24.62
45701;BMP280;36277;32.852;-116.998;2022-07-18T05:05:15;99715.88;;;24.83
45701;BMP280;36277;32.852;-116.998;2022-07-18T05:07:43;99707.38;;;24.98
45701;BMP280;36277;32.852;-116.998;2022-07-18T05:10:11;99722.94;;;25.12
45701;BMP280;36277;32.852;-116.998;2022-07-18T05:12:39;99725.13;;;25.23
45701;BMP280;36277;32.852;-116.998;2022-07-18T05:15:08;99718.06;;;25.07
45701;BMP280;36277;32.852;-116.998;2022-07-18T05:17:36;99716.06;;;24.82
45701;BMP280;36277;32.852;-116.998;2022-07-18T05:20:08;99706.50;;;23.91
45701;BMP280;36277;32.852;-116.998;2022-07-18T05:22:36;99724.88;;;23.56
45701;BMP280;36277;32.852;-116.998;2022-07-18T05:25:04;99721.69;;;24.14
45701;BMP280;36277;32.852;-116.998;2022-07-18T05:27:30;99717.78;;;24.36
45701;BMP280;36277;32.852;-116.998;2022-07-18T05:29:57;99719.59;;;24.56
45701;BMP280;36277;32.852;-116.998;2022-07-18T05:32:25;99715.84;;;24.77
45701;BMP280;36277;32.852;-116.998;2022-07-18T05:34:52;99710.13;;;24.85
45701;BMP280;36277;32.852;-116.998;2022-07-18T05:37:18;99722.28;;;24.97
45701;BMP280;36277;32.852;-116.998;2022-07-18T05:39:44;99709.72;;;25.01
45701;BMP280;36277;32.852;-116.998;2022-07-18T05:42:10;99704.91;;;25.16
45701;BMP280;36277;32.852;-116.998;2022-07-18T05:44:37;99702.78;;;25.24
45701;BMP280;36277;32.852;-116.998;2022-07-18T05:47:03;99714.69;;;25.25
45701;BMP280;36277;32.852;-116.998;2022-07-18T05:49:29;99710.03;;;25.31
45701;BMP280;36277;32.852;-116.998;2022-07-18T05:51:55;99704.94;;;25.35
45701;BMP280;36277;32.852;-116.998;2022-07-18T05:54:22;99708.75;;;25.40
45701;BMP280;36277;32.852;-116.998;2022-07-18T05:56:50;99720.22;;;25.25
45701;BMP280;36277;32.852;-116.998;2022-07-18T05:59:18;99715.22;;;24.34
45701;BMP280;36277;32.852;-116.998;2022-07-18T06:01:44;99717.88;;;23.81
45701;BMP280;36277;32.852;-116.998;2022-07-18T06:04:10;99707.94;;;23.87
45701;BMP280;36277;32.852;-116.998;2022-07-18T06:06:37;99716.06;;;24.35
45701;BMP280;36277;32.852;-116.998;2022-07-18T06:09:04;99712.34;;;24.49
45701;BMP280;36277;32.852;-116.998;2022-07-18T06:11:31;99705.22;;;24.74
45701;BMP280;36277;32.852;-116.998;2022-07-18T06:13:57;99705.66;;;24.84
45701;BMP280;36277;32.852;-116.998;2022-07-18T06:16:24;99710.56;;;24.88
45701;BMP280;36277;32.852;-116.998;2022-07-18T06:18:50;99722.94;;;25.05
45701;BMP280;36277;32.852;-116.998;2022-07-18T06:21:16;99725.97;;;25.17
45701;BMP280;36277;32.852;-116.998;2022-07-18T06:23:43;99728.50;;;25.25
45701;BMP280;36277;32.852;-116.998;2022-07-18T06:26:09;99718.31;;;25.31
45701;BMP280;36277;32.852;-116.998;2022-07-18T06:28:36;99718.72;;;25.28
45701;BMP280;36277;32.852;-116.998;2022-07-18T06:31:02;99704.50;;;25.31
45701;BMP280;36277;32.852;-116.998;2022-07-18T06:33:28;99708.13;;;25.45
45701;BMP280;36277;32.852;-116.998;2022-07-18T06:35:54;99699.19;;;25.49
45701;BMP280;36277;32.852;-116.998;2022-07-18T06:38:21;99696.63;;;25.48
45701;BMP280;36277;32.852;-116.998;2022-07-18T06:40:47;99696.00;;;25.27
45701;BMP280;36277;32.852;-116.998;2022-07-18T06:43:13;99704.00;;;24.42
45701;BMP280;36277;32.852;-116.998;2022-07-18T06:45:46;99717.69;;;23.62
45701;BMP280;36277;32.852;-116.998;2022-07-18T06:48:14;99700.06;;;23.84
45701;BMP280;36277;32.852;-116.998;2022-07-18T06:50:41;99715.19;;;24.28
45701;BMP280;36277;32.852;-116.998;2022-07-18T06:53:07;99714.09;;;24.56
45701;BMP280;36277;32.852;-116.998;2022-07-18T06:55:33;99720.09;;;24.79
45701;BMP280;36277;32.852;-116.998;2022-07-18T06:58:00;99720.13;;;24.86
45701;BMP280;36277;32.852;-116.998;2022-07-18T07:00:26;99719.69;;;24.89
45701;BMP280;36277;32.852;-116.998;2022-07-18T07:02:53;99713.78;;;24.92
45701;BMP280;36277;32.852;-116.998;2022-07-18T07:05:20;99719.78;;;25.15
45701;BMP280;36277;32.852;-116.998;2022-07-18T07:07:48;99722.34;;;25.23
45701;BMP280;36277;32.852;-116.998;2022-07-18T07:10:16;99724.91;;;25.24
45701;BMP280;36277;32.852;-116.998;2022-07-18T07:12:45;99719.38;;;25.30
45701;BMP280;36277;32.852;-116.998;2022-07-18T07:15:12;99722.13;;;25.30
45701;BMP280;36277;32.852;-116.998;2022-07-18T07:17:39;99718.09;;;25.39
45701;BMP280;36277;32.852;-116.998;2022-07-18T07:20:07;99723.00;;;25.37
45701;BMP280;36277;32.852;-116.998;2022-07-18T07:22:49;99723.63;;;25.46
45701;BMP280;36277;32.852;-116.998;2022-07-18T07:25:16;99712.81;;;25.44
45701;BMP280;36277;32.852;-116.998;2022-07-18T07:27:43;99711.75;;;25.52
45701;BMP280;36277;32.852;-116.998;2022-07-18T07:30:10;99717.69;;;25.55
45701;BMP280;36277;32.852;-116.998;2022-07-18T07:32:38;99713.00;;;25.62
45701;BMP280;36277;32.852;-116.998;2022-07-18T07:35:06;99722.16;;;25.69
45701;BMP280;36277;32.852;-116.998;2022-07-18T07:37:36;99717.06;;;25.60
45701;BMP280;36277;32.852;-116.998;2022-07-18T07:40:03;99734.25;;;25.75
45701;BMP280;36277;32.852;-116.998;2022-07-18T07:42:30;99731.28;;;25.70
45701;BMP280;36277;32.852;-116.998;2022-07-18T07:44:56;99731.91;;;25.78
45701;BMP280;36277;32.852;-116.998;2022-07-18T07:47:22;99754.69;;;25.80
45701;BMP280;36277;32.852;-116.998;2022-07-18T07:49:48;99752.78;;;25.87
45701;BMP280;36277;32.852;-116.998;2022-07-18T07:52:14;99751.50;;;25.90
45701;BMP280;36277;32.852;-116.998;2022-07-18T07:54:44;99754.06;;;25.91
45701;BMP280;36277;32.852;-116.998;2022-07-18T07:57:13;99748.31;;;25.86
45701;BMP280;36277;32.852;-116.998;2022-07-18T07:59:39;99742.56;;;25.94
45701;BMP280;36277;32.852;-116.998;2022-07-18T08:02:05;99752.16;;;25.98
45701;BMP280;36277;32.852;-116.998;2022-07-18T08:04:32;99752.97;;;26.05
45701;BMP280;36277;32.852;-116.998;2022-07-18T08:06:58;99755.09;;;26.03
45701;BMP280;36277;32.852;-116.998;2022-07-18T08:09:24;99761.28;;;25.92
45701;BMP280;36277;32.852;-116.998;2022-07-18T08:11:50;99765.94;;;26.05
45701;BMP280;36277;32.852;-116.998;2022-07-18T08:14:17;99767.84;;;26.04
45701;BMP280;36277;32.852;-116.998;2022-07-18T08:16:43;99773.81;;;26.01
45701;BMP280;36277;32.852;-116.998;2022-07-18T08:19:09;99774.47;;;26.10
45701;BMP280;36277;32.852;-116.998;2022-07-18T08:21:35;99771.25;;;26.06
45701;BMP280;36277;32.852;-116.998;2022-07-18T08:24:02;99764.66;;;26.07
45701;BMP280;36277;32.852;-116.998;2022-07-18T08:26:28;99781.47;;;26.12
45701;BMP280;36277;32.852;-116.998;2022-07-18T08:28:54;99776.56;;;26.14
45701;BMP280;36277;32.852;-116.998;2022-07-18T08:31:20;99781.25;;;26.20
45701;BMP280;36277;32.852;-116.998;2022-07-18T08:33:46;99777.66;;;26.07
45701;BMP280;36277;32.852;-116.998;2022-07-18T08:36:13;99772.09;;;26.13
45701;BMP280;36277;32.852;-116.998;2022-07-18T08:38:39;99771.44;;;26.18
45701;BMP280;36277;32.852;-116.998;2022-07-18T08:41:06;99773.81;;;26.14
45701;BMP280;36277;32.852;-116.998;2022-07-18T08:43:32;99783.16;;;26.20
45701;BMP280;36277;32.852;-116.998;2022-07-18T08:46:04;99781.72;;;25.91
45701;BMP280;36277;32.852;-116.998;2022-07-18T08:48:31;99780.59;;;24.74
45701;BMP280;36277;32.852;-116.998;2022-07-18T08:51:00;99790.66;;;24.20
45701;BMP280;36277;32.852;-116.998;2022-07-18T08:53:26;99794.84;;;23.62
45701;BMP280;36277;32.852;-116.998;2022-07-18T08:55:53;99788.75;;;23.66
45701;BMP280;36277;32.852;-116.998;2022-07-18T08:58:20;99779.72;;;24.33
45701;BMP280;36277;32.852;-116.998;2022-07-18T09:00:47;99787.56;;;24.64
45701;BMP280;36277;32.852;-116.998;2022-07-18T09:03:13;99791.25;;;24.84
45701;BMP280;36277;32.852;-116.998;2022-07-18T09:05:40;99782.56;;;25.00
45701;BMP280;36277;32.852;-116.998;2022-07-18T09:08:18;99784.78;;;25.17
45701;BMP280;36277;32.852;-116.998;2022-07-18T09:10:55;99785.44;;;25.26
45701;BMP280;36277;32.852;-116.998;2022-07-18T09:13:24;99779.72;;;25.33
45701;BMP280;36277;32.852;-116.998;2022-07-18T09:16:01;99790.38;;;25.43
45701;BMP280;36277;32.852;-116.998;2022-07-18T09:21:03;99788.69;;;25.48
45701;BMP280;36277;32.852;-116.998;2022-07-18T09:23:32;99792.94;;;25.51
45701;BMP280;36277;32.852;-116.998;2022-07-18T09:25:59;99791.03;;;25.58
45701;BMP280;36277;32.852;-116.998;2022-07-18T09:28:26;99779.56;;;25.61
45701;BMP280;36277;32.852;-116.998;2022-07-18T09:30:53;99793.38;;;25.67
45701;BMP280;36277;32.852;-116.998;2022-07-18T09:33:20;99788.91;;;25.66
45701;BMP280;36277;32.852;-116.998;2022-07-18T09:35:52;99780.19;;;25.76
45701;BMP280;36277;32.852;-116.998;2022-07-18T09:38:21;99785.72;;;25.76
45701;BMP280;36277;32.852;-116.998;2022-07-18T09:40:52;99788.94;;;25.79
45701;BMP280;36277;32.852;-116.998;2022-07-18T09:43:21;99792.94;;;25.77
45701;BMP280;36277;32.852;-116.998;2022-07-18T09:45:52;99787.88;;;25.80
45701;BMP280;36277;32.852;-116.998;2022-07-18T09:48:23;99791.28;;;25.82
45701;BMP280;36277;32.852;-116.998;2022-07-18T09:50:55;99801.50;;;25.82
45701;BMP280;36277;32.852;-116.998;2022-07-18T09:53:36;99800.63;;;25.88
45701;BMP280;36277;32.852;-116.998;2022-07-18T09:56:25;99814.25;;;25.83
45701;BMP280;36277;32.852;-116.998;2022-07-18T09:58:55;99820.19;;;25.86
45701;BMP280;36277;32.852;-116.998;2022-07-18T10:01:23;99827.22;;;25.89
45701;BMP280;36277;32.852;-116.998;2022-07-18T10:03:50;99815.72;;;25.92
45701;BMP280;36277;32.852;-116.998;2022-07-18T10:06:17;99817.44;;;25.93
45701;BMP280;36277;32.852;-116.998;2022-07-18T10:08:44;99822.13;;;25.92
45701;BMP280;36277;32.852;-116.998;2022-07-18T10:11:10;99820.00;;;25.94
45701;BMP280;36277;32.852;-116.998;2022-07-18T10:13:38;99824.88;;;25.99
45701;BMP280;36277;32.852;-116.998;2022-07-18T10:16:05;99825.75;;;25.99
45701;BMP280;36277;32.852;-116.998;2022-07-18T10:18:33;99833.41;;;25.97
45701;BMP280;36277;32.852;-116.998;2022-07-18T10:21:10;99824.03;;;25.98
45701;BMP280;36277;32.852;-116.998;2022-07-18T10:23:41;99824.03;;;25.98
45701;BMP280;36277;32.852;-116.998;2022-07-18T10:26:25;99825.75;;;25.99
45701;BMP280;36277;32.852;-116.998;2022-07-18T10:31:36;99824.47;;;26.02
45701;BMP280;36277;32.852;-116.998;2022-07-18T10:39:34;99827.00;;;26.03
45701;BMP280;36277;32.852;-116.998;2022-07-18T10:47:14;99833.38;;;26.10
45701;BMP280;36277;32.852;-116.998;2022-07-18T11:02:39;99839.13;;;26.09
45701;BMP280;36277;32.852;-116.998;2022-07-18T11:16:03;99844.44;;;26.10
45701;BMP280;36277;32.852;-116.998;2022-07-18T11:19:19;99835.72;;;26.13
45701;BMP280;36277;32.852;-116.998;2022-07-18T11:21:29;99839.13;;;26.15
45701;BMP280;36277;32.852;-116.998;2022-07-18T11:24:09;99842.72;;;26.16
45701;BMP280;36277;32.852;-116.998;2022-07-18T11:26:47;99851.91;;;26.16
45701;BMP280;36277;32.852;-116.998;2022-07-18T11:29:16;99851.47;;;26.06
45701;BMP280;36277;32.852;-116.998;2022-07-18T11:31:54;99865.28;;;26.13
45701;BMP280;36277;32.852;-116.998;2022-07-18T11:34:24;99870.81;;;26.13
45701;BMP280;36277;32.852;-116.998;2022-07-18T11:36:50;99868.28;;;26.11
45701;BMP280;36277;32.852;-116.998;2022-07-18T11:39:30;99854.66;;;26.16
45701;BMP280;36277;32.852;-116.998;2022-07-18T11:41:57;99860.63;;;26.07
45701;BMP280;36277;32.852;-116.998;2022-07-18T11:44:24;99858.50;;;26.09
45701;BMP280;36277;32.852;-116.998;2022-07-18T11:47:04;99868.25;;;26.18
45701;BMP280;36277;32.852;-116.998;2022-07-18T11:49:30;99877.63;;;26.10
45701;BMP280;36277;32.852;-116.998;2022-07-18T11:51:57;99885.28;;;26.15
45701;BMP280;36277;32.852;-116.998;2022-07-18T11:54:24;99883.59;;;26.14
45701;BMP280;36277;32.852;-116.998;2022-07-18T11:56:54;99878.50;;;26.11
45701;BMP280;36277;32.852;-116.998;2022-07-18T11:59:21;99886.16;;;26.15
45701;BMP280;36277;32.852;-116.998;2022-07-18T12:01:48;99890.81;;;26.15
45701;BMP280;36277;32.852;-116.998;2022-07-18T12:04:24;99893.16;;;26.11
45701;BMP280;36277;32.852;-116.998;2022-07-18T12:09:41;99892.09;;;26.12
45701;BMP280;36277;32.852;-116.998;2022-07-18T12:12:11;99901.88;;;26.15
45701;BMP280;36277;32.852;-116.998;2022-07-18T12:14:38;99904.88;;;26.13
45701;BMP280;36277;32.852;-116.998;2022-07-18T12:17:05;99915.53;;;26.16
45701;BMP280;36277;32.852;-116.998;2022-07-18T12:19:37;99912.53;;;26.18
45701;BMP280;36277;32.852;-116.998;2022-07-18T12:22:05;99914.66;;;26.16
45701;BMP280;36277;32.852;-116.998;2022-07-18T12:24:54;99916.59;;;26.15
45701;BMP280;36277;32.852;-116.998;2022-07-18T12:27:24;99905.28;;;26.10
45701;BMP280;36277;32.852;-116.998;2022-07-18T12:30:07;99917.88;;;26.19
45701;BMP280;36277;32.852;-116.998;2022-07-18T12:32:39;99916.34;;;26.17
45701;BMP280;36277;32.852;-116.998;2022-07-18T12:38:10;99934.88;;;26.16
45701;BMP280;36277;32.852;-116.998;2022-07-18T12:40:57;99935.72;;;26.10
45701;BMP280;36277;32.852;-116.998;2022-07-18T12:43:44;99936.78;;;26.09
45701;BMP280;36277;32.852;-116.998;2022-07-18T12:46:11;99947.22;;;26.07
45701;BMP280;36277;32.852;-116.998;2022-07-18T12:48:38;99942.97;;;26.05
45701;BMP280;36277;32.852;-116.998;2022-07-18T12:51:09;99947.84;;;26.09
45701;BMP280;36277;32.852;-116.998;2022-07-18T12:53:41;99955.09;;;26.10
45701;BMP280;36277;32.852;-116.998;2022-07-18T12:56:07;99953.78;;;26.06
45701;BMP280;36277;32.852;-116.998;2022-07-18T12:58:33;99961.50;;;26.11
45701;BMP280;36277;32.852;-116.998;2022-07-18T13:01:00;99959.56;;;26.11
45701;BMP280;36277;32.852;-116.998;2022-07-18T13:03:26;99957.84;;;26.10
45701;BMP280;36277;32.852;-116.998;2022-07-18T13:05:53;99961.91;;;26.14
45701;BMP280;36277;32.852;-116.998;2022-07-18T13:08:19;99965.97;;;26.12
45701;BMP280;36277;32.852;-116.998;2022-07-18T13:10:45;99962.97;;;26.13
45701;BMP280;36277;32.852;-116.998;2022-07-18T13:13:12;99969.56;;;26.12
45701;BMP280;36277;32.852;-116.998;2022-07-18T13:15:38;99976.16;;;26.11
45701;BMP280;36277;32.852;-116.998;2022-07-18T13:18:05;99972.31;;;26.12
45701;BMP280;36277;32.852;-116.998;2022-07-18T13:20:31;99981.91;;;26.16
45701;BMP280;36277;32.852;-116.998;2022-07-18T13:22:58;99978.09;;;26.11
45701;BMP280;36277;32.852;-116.998;2022-07-18T13:25:30;99986.38;;;26.11
45701;BMP280;36277;32.852;-116.998;2022-07-18T13:27:58;99992.31;;;26.08
45701;BMP280;36277;32.852;-116.998;2022-07-18T13:30:24;99998.50;;;26.10
45701;BMP280;36277;32.852;-116.998;2022-07-18T13:32:50;99996.81;;;26.09
45701;BMP280;36277;32.852;-116.998;2022-07-18T13:35:17;99992.31;;;26.08
45701;BMP280;36277;32.852;-116.998;2022-07-18T13:37:43;99989.56;;;26.08
45701;BMP280;36277;32.852;-116.998;2022-07-18T13:40:10;99994.44;;;26.12
45701;BMP280;36277;32.852;-116.998;2022-07-18T13:42:38;99997.63;;;26.09
45701;BMP280;36277;32.852;-116.998;2022-07-18T13:45:05;99989.97;;;26.11
45701;BMP280;36277;32.852;-116.998;2022-07-18T13:47:32;99989.34;;;26.09
45701;BMP280;36277;32.852;-116.998;2022-07-18T13:49:58;99987.00;;;26.13
45701;BMP280;36277;32.852;-116.998;2022-07-18T13:52:24;99992.97;;;26.10
45701;BMP280;36277;32.852;-116.998;2022-07-18T13:54:51;99997.63;;;26.09
45701;BMP280;36277;32.852;-116.998;2022-07-18T13:57:21;99996.38;;;26.12
45701;BMP280;36277;32.852;-116.998;2022-07-18T13:59:47;99999.56;;;26.09
45701;BMP280;36277;32.852;-116.998;2022-07-18T14:02:13;100003.16;;;26.09
45701;BMP280;36277;32.852;-116.998;2022-07-18T14:04:39;99998.34;;;25.71
45701;BMP280;36277;32.852;-116.998;2022-07-18T14:07:06;100008.91;;;24.87
45701;BMP280;36277;32.852;-116.998;2022-07-18T14:09:32;100008.84;;;24.32
45701;BMP280;36277;32.852;-116.998;2022-07-18T14:11:58;100007.09;;;23.68
45701;BMP280;36277;32.852;-116.998;2022-07-18T14:14:24;100005.06;;;23.27
45701;BMP280;36277;32.852;-116.998;2022-07-18T14:16:51;100011.59;;;22.97
45701;BMP280;36277;32.852;-116.998;2022-07-18T14:19:18;100007.97;;;22.68
45701;BMP280;36277;32.852;-116.998;2022-07-18T14:21:46;100023.34;;;22.40